sensor_id;sensor_type;location;lat;lon;timestamp;pressure;altitude;pressure_sealevel;temperature;humidity
40596;BME280;26304;48.794;9.820;2023-02-16T00:00:39;97257.41;;;17.33;44.90
40596;BME280;26304;48.794;9.820;2023-02-16T00:06:22;97252.06;;;17.30;45.66
40596;BME280;26304;48.794;9.820;2023-02-16T00:12:15;97261.03;;;17.29;45.46
40596;BME280;26304;48.794;9.820;2023-02-16T00:18:20;97258.34;;;17.25;45.23
40596;BME280;26304;48.794;9.820;2023-02-16T00:24:03;97266.56;;;17.23;45.21
40596;BME280;26304;48.794;9.820;2023-02-16T00:29:45;97266.44;;;17.20;45.30
40596;BME280;26304;48.794;9.820;2023-02-16T00:35:29;97261.56;;;17.18;45.61
40596;BME280;26304;48.794;9.820;2023-02-16T00:41:16;97263.00;;;17.16;45.75
40596;BME280;26304;48.794;9.820;2023-02-16T00:47:17;97255.78;;;17.13;45.30
40596;BME280;26304;48.794;9.820;2023-02-16T00:53:02;97254.59;;;17.10;45.61
40596;BME280;26304;48.794;9.820;2023-02-16T00:58:44;97245.53;;;17.08;45.68
40596;BME280;26304;48.794;9.820;2023-02-16T01:04:27;97257.13;;;17.06;45.53
40596;BME280;26304;48.794;9.820;2023-02-16T01:10:11;97268.31;;;17.03;45.27
40596;BME280;26304;48.794;9.820;2023-02-16T01:16:13;97263.72;;;17.00;45.18
40596;BME280;26304;48.794;9.820;2023-02-16T01:21:55;97262.97;;;17.00;45.62
40596;BME280;26304;48.794;9.820;2023-02-16T01:27:39;97258.72;;;16.95;45.36
40596;BME280;26304;48.794;9.820;2023-02-16T01:33:22;97251.59;;;16.96;45.64
40596;BME280;26304;48.794;9.820;2023-02-16T01:39:05;97264.66;;;16.92;45.46
40596;BME280;26304;48.794;9.820;2023-02-16T01:44:50;97250.78;;;16.92;45.36
40596;BME280;26304;48.794;9.820;2023-02-16T01:50:41;97254.06;;;16.88;45.36
40596;BME280;26304;48.794;9.820;2023-02-16T01:56:28;97244.66;;;16.87;45.68
40596;BME280;26304;48.794;9.820;2023-02-16T02:02:16;97251.78;;;16.87;45.39
40596;BME280;26304;48.794;9.820;2023-02-16T02:08:07;97243.44;;;16.85;45.64
40596;BME280;26304;48.794;9.820;2023-02-16T02:13:54;97239.63;;;16.82;45.26
40596;BME280;26304;48.794;9.820;2023-02-16T02:19:46;97238.00;;;16.78;46.01
40596;BME280;26304;48.794;9.820;2023-02-16T02:25:50;97226.69;;;17.05;45.23
40596;BME280;26304;48.794;9.820;2023-02-16T02:31:48;97230.63;;;18.54;43.20
40596;BME280;26304;48.794;9.820;2023-02-16T02:37:42;97220.75;;;19.63;41.02
40596;BME280;26304;48.794;9.820;2023-02-16T02:43:30;97220.91;;;20.04;40.60
40596;BME280;26304;48.794;9.820;2023-02-16T02:49:17;97205.59;;;20.17;40.64
40596;BME280;26304;48.794;9.820;2023-02-16T02:54:59;97212.34;;;20.48;40.46
40596;BME280;26304;48.794;9.820;2023-02-16T03:00:59;97212.19;;;21.12;39.42
40596;BME280;26304;48.794;9.820;2023-02-16T03:06:46;97209.22;;;21.17;39.38
40596;BME280;26304;48.794;9.820;2023-02-16T03:12:29;97218.84;;;21.40;39.40
40596;BME280;26304;48.794;9.820;2023-02-16T03:18:27;97222.50;;;21.80;39.00
40596;BME280;26304;48.794;9.820;2023-02-16T03:24:32;97213.91;;;22.05;38.74
40596;BME280;26304;48.794;9.820;2023-02-16T03:30:32;97208.31;;;22.28;38.48
40596;BME280;26304;48.794;9.820;2023-02-16T03:36:15;97214.75;;;22.27;38.76
40596;BME280;26304;48.794;9.820;2023-02-16T03:41:59;97216.41;;;22.89;37.89
40596;BME280;26304;48.794;9.820;2023-02-16T03:47:41;97205.44;;;23.19;37.46
40596;BME280;26304;48.794;9.820;2023-02-16T03:53:23;97215.69;;;23.10;37.60
40596;BME280;26304;48.794;9.820;2023-02-16T03:59:07;97223.94;;;22.55;39.12
40596;BME280;26304;48.794;9.820;2023-02-16T04:04:49;97222.41;;;21.62;40.58
40596;BME280;26304;48.794;9.820;2023-02-16T04:10:32;97223.84;;;21.04;41.50
40596;BME280;26304;48.794;9.820;2023-02-16T04:16:16;97230.50;;;20.87;41.88
40596;BME280;26304;48.794;9.820;2023-02-16T04:21:58;97245.97;;;20.51;42.57
40596;BME280;26304;48.794;9.820;2023-02-16T04:27:42;97241.88;;;20.57;42.47
40596;BME280;26304;48.794;9.820;2023-02-16T04:33:25;97243.13;;;21.04;41.51
40596;BME280;26304;48.794;9.820;2023-02-16T04:39:08;97246.38;;;21.32;41.09
40596;BME280;26304;48.794;9.820;2023-02-16T04:44:50;97239.19;;;21.88;40.15
40596;BME280;26304;48.794;9.820;2023-02-16T04:50:34;97236.03;;;22.48;38.91
40596;BME280;26304;48.794;9.820;2023-02-16T04:56:17;97245.94;;;22.88;38.47
40596;BME280;26304;48.794;9.820;2023-02-16T05:01:59;97241.38;;;22.63;38.83
40596;BME280;26304;48.794;9.820;2023-02-16T05:07:43;97243.75;;;21.91;40.39
40596;BME280;26304;48.794;9.820;2023-02-16T05:13:25;97249.47;;;21.45;41.07
40596;BME280;26304;48.794;9.820;2023-02-16T05:19:25;97240.13;;;21.10;41.88
40596;BME280;26304;48.794;9.820;2023-02-16T05:25:09;97251.97;;;20.82;42.47
40596;BME280;26304;48.794;9.820;2023-02-16T05:30:52;97258.38;;;20.47;43.11
40596;BME280;26304;48.794;9.820;2023-02-16T05:36:34;97257.09;;;20.33;43.63
40596;BME280;26304;48.794;9.820;2023-02-16T05:42:18;97261.69;;;20.40;43.18
40596;BME280;26304;48.794;9.820;2023-02-16T05:48:01;97259.25;;;20.58;43.70
40596;BME280;26304;48.794;9.820;2023-02-16T05:53:43;97270.47;;;20.48;44.44
40596;BME280;26304;48.794;9.820;2023-02-16T05:59:27;97268.59;;;20.18;44.40
40596;BME280;26304;48.794;9.820;2023-02-16T06:05:10;97273.16;;;20.21;44.58
40596;BME280;26304;48.794;9.820;2023-02-16T06:10:53;97279.38;;;20.06;45.18
40596;BME280;26304;48.794;9.820;2023-02-16T06:16:39;97281.41;;;20.16;45.07
40596;BME280;26304;48.794;9.820;2023-02-16T06:22:21;97286.31;;;20.18;44.63
40596;BME280;26304;48.794;9.820;2023-02-16T06:28:04;97301.81;;;20.19;44.54
40596;BME280;26304;48.794;9.820;2023-02-16T06:33:48;97292.28;;;20.11;45.11
40596;BME280;26304;48.794;9.820;2023-02-16T06:39:30;97302.50;;;20.16;45.44
40596;BME280;26304;48.794;9.820;2023-02-16T06:45:13;97299.78;;;20.09;45.36
40596;BME280;26304;48.794;9.820;2023-02-16T06:50:56;97299.38;;;20.07;45.41
40596;BME280;26304;48.794;9.820;2023-02-16T06:56:39;97308.19;;;20.48;45.21
40596;BME280;26304;48.794;9.820;2023-02-16T07:02:21;97305.00;;;20.05;46.06
40596;BME280;26304;48.794;9.820;2023-02-16T07:08:05;97302.16;;;19.91;45.84
40596;BME280;26304;48.794;9.820;2023-02-16T07:13:48;97308.03;;;19.77;46.13
40596;BME280;26304;48.794;9.820;2023-02-16T07:19:31;97308.34;;;19.75;46.14
40596;BME280;26304;48.794;9.820;2023-02-16T07:25:15;97312.63;;;19.60;46.98
40596;BME280;26304;48.794;9.820;2023-02-16T07:30:57;97320.19;;;19.62;45.64
40596;BME280;26304;48.794;9.820;2023-02-16T07:36:40;97317.63;;;19.66;46.41
40596;BME280;26304;48.794;9.820;2023-02-16T07:42:28;97319.09;;;19.40;46.70
40596;BME280;26304;48.794;9.820;2023-02-16T07:48:11;97316.34;;;19.33;46.60
40596;BME280;26304;48.794;9.820;2023-02-16T07:53:54;97320.78;;;19.29;46.24
40596;BME280;26304;48.794;9.820;2023-02-16T07:59:39;97318.44;;;19.23;46.65
40596;BME280;26304;48.794;9.820;2023-02-16T08:05:21;97330.81;;;19.19;46.24
40596;BME280;26304;48.794;9.820;2023-02-16T08:11:08;97327.34;;;19.15;46.16
40596;BME280;26304;48.794;9.820;2023-02-16T08:16:52;97327.81;;;19.21;46.03
40596;BME280;26304;48.794;9.820;2023-02-16T08:22:34;97329.75;;;19.24;46.15
40596;BME280;26304;48.794;9.820;2023-02-16T08:28:17;97324.72;;;19.15;46.65
40596;BME280;26304;48.794;9.820;2023-02-16T08:34:04;97324.84;;;19.03;47.04
40596;BME280;26304;48.794;9.820;2023-02-16T08:39:47;97332.31;;;18.97;46.33
40596;BME280;26304;48.794;9.820;2023-02-16T08:45:30;97328.47;;;18.95;46.18
40596;BME280;26304;48.794;9.820;2023-02-16T08:51:14;97323.91;;;18.92;45.91
40596;BME280;26304;48.794;9.820;2023-02-16T08:56:58;97323.91;;;18.92;45.23
40596;BME280;26304;48.794;9.820;2023-02-16T09:02:42;97335.41;;;19.03;45.66
40596;BME280;26304;48.794;9.820;2023-02-16T09:08:26;97336.25;;;19.07;45.24
40596;BME280;26304;48.794;9.820;2023-02-16T09:14:09;97335.41;;;19.03;45.39
40596;BME280;26304;48.794;9.820;2023-02-16T09:19:51;97340.56;;;18.96;45.37
40596;BME280;26304;48.794;9.820;2023-02-16T09:25:36;97337.22;;;18.99;44.91
40596;BME280;26304;48.794;9.820;2023-02-16T09:31:21;97330.28;;;19.10;44.78
40596;BME280;26304;48.794;9.820;2023-02-16T09:37:06;97334.00;;;19.09;44.59
40596;BME280;26304;48.794;9.820;2023-02-16T09:42:58;97339.53;;;19.23;43.92
40596;BME280;26304;48.794;9.820;2023-02-16T09:48:46;97332.47;;;19.28;43.82
40596;BME280;26304;48.794;9.820;2023-02-16T09:54:34;97336.72;;;19.36;44.15
40596;BME280;26304;48.794;9.820;2023-02-16T10:00:28;97334.78;;;19.33;44.03
40596;BME280;26304;48.794;9.820;2023-02-16T10:06:28;97340.47;;;19.35;43.88
40596;BME280;26304;48.794;9.820;2023-02-16T10:12:14;97334.19;;;19.43;43.55
40596;BME280;26304;48.794;9.820;2023-02-16T10:18:02;97336.09;;;19.42;43.42
40596;BME280;26304;48.794;9.820;2023-02-16T10:30:29;97332.34;;;19.44;43.48
40596;BME280;26304;48.794;9.820;2023-02-16T10:36:22;97337.84;;;19.35;43.22
40596;BME280;26304;48.794;9.820;2023-02-16T10:42:15;97323.25;;;19.41;43.06
40596;BME280;26304;48.794;9.820;2023-02-16T10:47:58;97327.88;;;19.48;42.57
40596;BME280;26304;48.794;9.820;2023-02-16T10:53:44;97320.84;;;19.55;42.49
40596;BME280;26304;48.794;9.820;2023-02-16T10:59:31;97318.59;;;19.57;42.82
40596;BME280;26304;48.794;9.820;2023-02-16T11:05:31;97315.25;;;19.60;42.35
40596;BME280;26304;48.794;9.820;2023-02-16T11:11:15;97302.06;;;19.60;42.47
40596;BME280;26304;48.794;9.820;2023-02-16T11:17:03;97305.84;;;19.59;42.57
40596;BME280;26304;48.794;9.820;2023-02-16T11:22:47;97299.88;;;19.63;42.19
40596;BME280;26304;48.794;9.820;2023-02-16T11:28:34;97288.13;;;19.60;42.26
40596;BME280;26304;48.794;9.820;2023-02-16T11:34:26;97285.53;;;19.64;42.54
40596;BME280;26304;48.794;9.820;2023-02-16T11:40:18;97273.19;;;19.68;42.10
40596;BME280;26304;48.794;9.820;2023-02-16T11:46:06;97268.31;;;19.70;42.37
40596;BME280;26304;48.794;9.820;2023-02-16T11:51:51;97267.59;;;19.73;42.44
40596;BME280;26304;48.794;9.820;2023-02-16T11:57:34;97260.06;;;19.75;42.11
40596;BME280;26304;48.794;9.820;2023-02-16T12:03:27;97265.34;;;19.75;42.62
40596;BME280;26304;48.794;9.820;2023-02-16T12:09:20;97260.06;;;19.75;42.37
40596;BME280;26304;48.794;9.820;2023-02-16T12:21:46;97237.81;;;19.72;43.01
40596;BME280;26304;48.794;9.820;2023-02-16T12:27:32;97221.72;;;19.77;42.30
40596;BME280;26304;48.794;9.820;2023-02-16T12:33:26;97216.84;;;19.80;43.45
40596;BME280;26304;48.794;9.820;2023-02-16T12:39:18;97209.88;;;19.41;43.55
40596;BME280;26304;48.794;9.820;2023-02-16T12:45:08;97209.97;;;19.21;43.30
40596;BME280;26304;48.794;9.820;2023-02-16T12:50:51;97215.41;;;19.09;43.45
40596;BME280;26304;48.794;9.820;2023-02-16T12:56:39;97198.78;;;19.05;43.06
40596;BME280;26304;48.794;9.820;2023-02-16T13:02:27;97195.59;;;19.19;42.74
40596;BME280;26304;48.794;9.820;2023-02-16T13:08:16;97185.59;;;19.28;43.00
40596;BME280;26304;48.794;9.820;2023-02-16T13:14:10;97179.44;;;19.20;42.24
40596;BME280;26304;48.794;9.820;2023-02-16T13:19:55;97161.81;;;19.24;42.15
40596;BME280;26304;48.794;9.820;2023-02-16T13:26:00;97170.22;;;19.34;42.39
40596;BME280;26304;48.794;9.820;2023-02-16T13:32:04;97172.25;;;19.17;41.98
40596;BME280;26304;48.794;9.820;2023-02-16T13:38:00;97163.94;;;19.15;41.81
40596;BME280;26304;48.794;9.820;2023-02-16T13:43:49;97157.13;;;19.14;42.22
40596;BME280;26304;48.794;9.820;2023-02-16T13:49:36;97158.97;;;19.10;41.22
40596;BME280;26304;48.794;9.820;2023-02-16T13:55:26;97162.47;;;19.18;41.76
40596;BME280;26304;48.794;9.820;2023-02-16T14:01:33;97160.09;;;18.86;40.61
40596;BME280;26304;48.794;9.820;2023-02-16T14:07:30;97160.28;;;18.77;41.51
40596;BME280;26304;48.794;9.820;2023-02-16T14:13:13;97159.19;;;18.78;40.32
40596;BME280;26304;48.794;9.820;2023-02-16T14:18:57;97169.03;;;18.81;40.39
40596;BME280;26304;48.794;9.820;2023-02-16T14:24:41;97160.28;;;18.77;40.00
40596;BME280;26304;48.794;9.820;2023-02-16T14:30:28;97163.28;;;18.76;40.73
40596;BME280;26304;48.794;9.820;2023-02-16T14:36:14;97151.41;;;18.62;39.84
40596;BME280;26304;48.794;9.820;2023-02-16T14:42:07;97162.16;;;18.54;40.57
40596;BME280;26304;48.794;9.820;2023-02-16T14:47:55;97163.97;;;18.49;40.39
40596;BME280;26304;48.794;9.820;2023-02-16T14:54:09;97162.84;;;18.50;40.90
40596;BME280;26304;48.794;9.820;2023-02-16T15:00:03;97154.50;;;18.45;40.66
40596;BME280;26304;48.794;9.820;2023-02-16T15:05:56;97155.00;;;18.31;40.47
40596;BME280;26304;48.794;9.820;2023-02-16T15:11:46;97165.47;;;18.27;40.60
40596;BME280;26304;48.794;9.820;2023-02-16T15:17:48;97158.19;;;18.21;40.74
40596;BME280;26304;48.794;9.820;2023-02-16T15:23:34;97148.72;;;18.16;41.31
40596;BME280;26304;48.794;9.820;2023-02-16T15:29:22;97147.88;;;18.12;41.36
40596;BME280;26304;48.794;9.820;2023-02-16T15:35:12;97155.00;;;18.11;41.35
40596;BME280;26304;48.794;9.820;2023-02-16T15:41:04;97156.47;;;18.09;40.83
40596;BME280;26304;48.794;9.820;2023-02-16T15:46:47;97154.19;;;18.07;40.40
40596;BME280;26304;48.794;9.820;2023-02-16T15:52:32;97146.16;;;18.00;40.52
40596;BME280;26304;48.794;9.820;2023-02-16T15:58:15;97144.72;;;17.87;40.60
40596;BME280;26304;48.794;9.820;2023-02-16T16:04:00;97130.50;;;17.88;41.32
40596;BME280;26304;48.794;9.820;2023-02-16T16:09:45;97126.28;;;18.22;41.71
40596;BME280;26304;48.794;9.820;2023-02-16T16:15:28;97129.16;;;18.60;41.56
40596;BME280;26304;48.794;9.820;2023-02-16T16:21:22;97128.28;;;18.52;41.97
40596;BME280;26304;48.794;9.820;2023-02-16T16:27:09;97134.03;;;18.58;42.25
40596;BME280;26304;48.794;9.820;2023-02-16T16:33:00;97137.13;;;18.63;42.31
40596;BME280;26304;48.794;9.820;2023-02-16T16:38:42;97144.25;;;18.63;42.39
40596;BME280;26304;48.794;9.820;2023-02-16T16:44:32;97145.09;;;18.67;42.45
40596;BME280;26304;48.794;9.820;2023-02-16T16:50:33;97146.59;;;18.68;42.79
40596;BME280;26304;48.794;9.820;2023-02-16T16:56:17;97147.81;;;18.74;42.91
40596;BME280;26304;48.794;9.820;2023-02-16T17:02:01;97155.03;;;18.77;43.02
40596;BME280;26304;48.794;9.820;2023-02-16T17:07:43;97159.06;;;18.71;43.69
40596;BME280;26304;48.794;9.820;2023-02-16T17:13:29;97162.94;;;18.77;43.68
40596;BME280;26304;48.794;9.820;2023-02-16T17:19:14;97169.03;;;18.81;43.25
40596;BME280;26304;48.794;9.820;2023-02-16T17:24:56;97164.13;;;18.80;43.46
40596;BME280;26304;48.794;9.820;2023-02-16T17:30:39;97169.03;;;18.81;43.20
40596;BME280;26304;48.794;9.820;2023-02-16T17:36:24;97164.16;;;18.83;43.29
40596;BME280;26304;48.794;9.820;2023-02-16T17:42:09;97157.47;;;18.86;43.15
40596;BME280;26304;48.794;9.820;2023-02-16T17:47:52;97169.56;;;18.91;43.62
40596;BME280;26304;48.794;9.820;2023-02-16T17:53:36;97166.75;;;18.80;43.42
40596;BME280;26304;48.794;9.820;2023-02-16T17:59:18;97172.19;;;18.91;43.96
40596;BME280;26304;48.794;9.820;2023-02-16T18:05:01;97172.63;;;18.93;44.15
40596;BME280;26304;48.794;9.820;2023-02-16T18:10:47;97164.41;;;18.98;45.13
40596;BME280;26304;48.794;9.820;2023-02-16T18:16:30;97166.31;;;19.24;43.78
40596;BME280;26304;48.794;9.820;2023-02-16T18:22:12;97169.06;;;19.08;44.65
40596;BME280;26304;48.794;9.820;2023-02-16T18:27:56;97170.13;;;19.27;44.37
40596;BME280;26304;48.794;9.820;2023-02-16T18:33:38;97174.38;;;19.35;44.82
40596;BME280;26304;48.794;9.820;2023-02-16T18:39:21;97179.44;;;19.47;45.31
40596;BME280;26304;48.794;9.820;2023-02-16T18:45:05;97178.06;;;19.84;45.52
40596;BME280;26304;48.794;9.820;2023-02-16T18:50:48;97191.44;;;19.71;44.75
40596;BME280;26304;48.794;9.820;2023-02-16T18:56:30;97186.09;;;19.37;45.11
40596;BME280;26304;48.794;9.820;2023-02-16T19:02:16;97191.81;;;19.16;45.55
40596;BME280;26304;48.794;9.820;2023-02-16T19:07:59;97190.75;;;18.98;46.13
40596;BME280;26304;48.794;9.820;2023-02-16T19:13:41;97192.69;;;19.01;46.07
40596;BME280;26304;48.794;9.820;2023-02-16T19:19:25;97200.56;;;18.97;45.52
40596;BME280;26304;48.794;9.820;2023-02-16T19:25:08;97193.59;;;18.66;45.41
40596;BME280;26304;48.794;9.820;2023-02-16T19:30:50;97187.03;;;18.56;44.50
40596;BME280;26304;48.794;9.820;2023-02-16T19:36:34;97184.75;;;18.55;45.47
40596;BME280;26304;48.794;9.820;2023-02-16T19:42:16;97187.78;;;18.57;45.51
40596;BME280;26304;48.794;9.820;2023-02-16T19:47:59;97194.28;;;18.63;44.89
40596;BME280;26304;48.794;9.820;2023-02-16T19:53:43;97186.59;;;18.74;44.92
40596;BME280;26304;48.794;9.820;2023-02-16T19:59:26;97178.78;;;18.58;44.82
40596;BME280;26304;48.794;9.820;2023-02-16T20:05:08;97182.38;;;18.69;46.11
40596;BME280;26304;48.794;9.820;2023-02-16T20:10:52;97174.94;;;18.12;43.47
40596;BME280;26304;48.794;9.820;2023-02-16T20:16:35;97176.56;;;17.82;41.76
40596;BME280;26304;48.794;9.820;2023-02-16T20:22:17;97180.50;;;17.88;41.03
40596;BME280;26304;48.794;9.820;2023-02-16T20:28:01;97180.66;;;17.79;40.93
40596;BME280;26304;48.794;9.820;2023-02-16T20:33:43;97178.09;;;17.63;41.04
40596;BME280;26304;48.794;9.820;2023-02-16T20:39:26;97180.09;;;17.70;41.17
40596;BME280;26304;48.794;9.820;2023-02-16T20:45:10;97183.88;;;17.72;41.27
40596;BME280;26304;48.794;9.820;2023-02-16T20:50:52;97181.25;;;17.72;41.15
40596;BME280;26304;48.794;9.820;2023-02-16T20:56:35;97179.59;;;17.84;41.86
40596;BME280;26304;48.794;9.820;2023-02-16T21:02:19;97177.84;;;17.88;41.75
40596;BME280;26304;48.794;9.820;2023-02-16T21:08:01;97184.31;;;17.90;42.16
40596;BME280;26304;48.794;9.820;2023-02-16T21:13:44;97179.09;;;17.94;42.40
40596;BME280;26304;48.794;9.820;2023-02-16T21:19:28;97167.06;;;17.93;42.65
40596;BME280;26304;48.794;9.820;2023-02-16T21:25:10;97179.81;;;17.91;43.32
40596;BME280;26304;48.794;9.820;2023-02-16T21:30:53;97176.28;;;17.87;43.16
40596;BME280;26304;48.794;9.820;2023-02-16T21:36:37;97180.31;;;17.81;44.06
40596;BME280;26304;48.794;9.820;2023-02-16T21:42:19;97168.97;;;17.76;43.72
40596;BME280;26304;48.794;9.820;2023-02-16T21:48:02;97164.78;;;17.75;43.82
40596;BME280;26304;48.794;9.820;2023-02-16T21:54:05;97165.13;;;17.74;44.05
40596;BME280;26304;48.794;9.820;2023-02-16T21:59:48;97160.56;;;17.71;43.91
40596;BME280;26304;48.794;9.820;2023-02-16T22:05:31;97152.63;;;17.67;44.15
40596;BME280;26304;48.794;9.820;2023-02-16T22:11:15;97146.94;;;17.65;44.12
40596;BME280;26304;48.794;9.820;2023-02-16T22:16:58;97146.19;;;17.65;44.33
40596;BME280;26304;48.794;9.820;2023-02-16T22:22:42;97143.91;;;17.63;44.70
40596;BME280;26304;48.794;9.820;2023-02-16T22:28:26;97149.91;;;17.64;44.85
40596;BME280;26304;48.794;9.820;2023-02-16T22:34:13;97147.63;;;17.62;44.62
40596;BME280;26304;48.794;9.820;2023-02-16T22:39:56;97150.25;;;17.62;44.52
40596;BME280;26304;48.794;9.820;2023-02-16T22:45:40;97155.53;;;17.62;44.72
40596;BME280;26304;48.794;9.820;2023-02-16T22:51:22;97147.28;;;17.64;44.62
40596;BME280;26304;48.794;9.820;2023-02-16T22:57:07;97147.63;;;17.62;44.39
40596;BME280;26304;48.794;9.820;2023-02-16T23:02:51;97146.53;;;17.63;44.30
40596;BME280;26304;48.794;9.820;2023-02-16T23:08:33;97146.09;;;17.61;44.26
40596;BME280;26304;48.794;9.820;2023-02-16T23:14:16;97136.38;;;17.61;44.12
40596;BME280;26304;48.794;9.820;2023-02-16T23:20:02;97130.31;;;17.61;44.43
40596;BME280;26304;48.794;9.820;2023-02-16T23:25:46;97139.34;;;17.60;44.22
40596;BME280;26304;48.794;9.820;2023-02-16T23:31:30;97128.81;;;17.60;44.55
40596;BME280;26304;48.794;9.820;2023-02-16T23:37:14;97132.88;;;17.57;44.91
40596;BME280;26304;48.794;9.820;2023-02-16T23:42:57;97137.03;;;17.58;44.71
40596;BME280;26304;48.794;9.820;2023-02-16T23:48:39;97135.91;;;17.59;44.61
40596;BME280;26304;48.794;9.820;2023-02-16T23:54:23;97132.53;;;17.59;44.56
